Time;durP1;ratioP1;P1;durP2;ratioP2;P2;SDS_P1;SDS_P2;PMS_P1;PMS_P2;Temp;Humidity;BMP_temperature;BMP_pressure;BME280_temperature;BME280_humidity;BME280_pressure;Samples;Min_cycle;Max_cycle;Signal;HPM_P1;HPM_P2
2023/01/23 05:32:30;;;;;;;15.68;9.70;;;1.00;80.40;;;;;;4893581;29;20041;-74
2023/01/23 05:34:56;;;;;;;27.95;12.23;;;1.00;80.30;;;;;;4892199;29;20103;-74
2023/01/23 05:37:24;;;;;;;16.08;10.38;;;1.10;80.40;;;;;;4884359;29;20872;-74
2023/01/23 05:39:49;;;;;;;20.90;12.10;;;1.10;80.40;;;;;;4901116;29;20025;-74
2023/01/23 05:42:15;;;;;;;13.27;8.77;;;1.10;80.40;;;;;;4882854;29;20043;-76
2023/01/23 05:44:41;;;;;;;20.10;12.50;;;1.10;80.40;;;;;;4884094;29;20121;-76
2023/01/23 05:47:06;;;;;;;21.13;12.05;;;1.20;80.40;;;;;;4883143;29;20043;-75
2023/01/23 05:49:32;;;;;;;13.55;9.23;;;1.20;80.40;;;;;;4901060;29;20036;-79
2023/01/23 05:51:58;;;;;;;20.40;10.57;;;1.10;80.40;;;;;;4884175;29;20091;-77
2023/01/23 05:54:23;;;;;;;17.77;8.52;;;1.20;80.40;;;;;;4898888;29;20029;-77
2023/01/23 05:56:49;;;;;;;18.27;10.52;;;1.20;80.30;;;;;;4882278;29;20029;-75
2023/01/23 05:59:15;;;;;;;15.73;9.38;;;1.30;80.30;;;;;;4899008;29;20137;-78
2023/01/23 06:01:40;;;;;;;24.33;12.93;;;1.40;80.20;;;;;;4877543;29;20499;-77
2023/01/23 06:04:06;;;;;;;16.98;10.43;;;1.40;80.20;;;;;;4890795;29;20045;-75
2023/01/23 06:06:32;;;;;;;19.38;9.98;;;1.40;80.10;;;;;;4882637;29;20489;-78
2023/01/23 06:09:02;;;;;;;18.40;10.98;;;1.40;80.10;;;;;;4890930;29;20041;-74
2023/01/23 06:11:28;;;;;;;9.98;8.25;;;1.40;80.00;;;;;;4890332;29;20471;-74
2023/01/23 06:13:53;;;;;;;18.20;8.50;;;1.40;80.10;;;;;;4887054;29;20033;-72
2023/01/23 06:16:19;;;;;;;13.45;8.98;;;1.50;80.00;;;;;;4882581;29;20116;-74
2023/01/23 06:18:45;;;;;;;15.13;9.68;;;1.50;79.90;;;;;;4893623;29;20048;-77
2023/01/23 06:21:10;;;;;;;13.68;8.48;;;1.50;79.80;;;;;;4898909;29;20025;-77
2023/01/23 06:23:36;;;;;;;17.70;10.55;;;1.60;79.80;;;;;;4870401;29;20044;-75
2023/01/23 06:26:06;;;;;;;12.05;8.25;;;1.60;79.80;;;;;;4887544;29;20166;-74
2023/01/23 06:28:32;;;;;;;14.00;10.25;;;1.60;79.80;;;;;;4883248;29;20043;-74
2023/01/23 06:31:02;;;;;;;16.05;11.15;;;1.70;79.80;;;;;;4894129;29;20495;-74
2023/01/23 06:33:28;;;;;;;;;;;1.70;79.60;;;;;;4889875;29;20108;-74
2023/01/23 06:35:59;;;;;;;15.88;10.18;;;1.70;79.60;;;;;;4891486;29;19942;-74
2023/01/23 06:38:25;;;;;;;14.00;8.27;;;1.60;79.60;;;;;;4894200;29;20036;-74
2023/01/23 06:40:51;;;;;;;15.32;9.30;;;1.70;79.60;;;;;;4899319;29;20025;-74
2023/01/23 06:43:19;;;;;;;22.73;10.13;;;1.60;79.50;;;;;;4897066;29;20068;-74
2023/01/23 06:45:46;;;;;;;20.40;10.65;;;1.50;79.70;;;;;;4898613;29;20035;-74
2023/01/23 06:48:12;;;;;;;18.00;9.88;;;1.50;79.70;;;;;;4883546;29;20032;-74
2023/01/23 06:50:42;;;;;;;16.00;11.60;;;1.40;79.80;;;;;;4889034;29;20048;-74
2023/01/23 06:53:10;;;;;;;14.60;8.30;;;1.40;80.00;;;;;;4882655;29;20043;-80
2023/01/23 06:55:36;;;;;;;19.17;10.00;;;1.40;80.00;;;;;;4896725;29;20479;-79
2023/01/23 06:58:02;;;;;;;16.20;9.77;;;1.50;79.90;;;;;;4885804;29;20037;-79
2023/01/23 07:00:30;;;;;;;16.17;9.65;;;1.40;79.90;;;;;;4899778;29;20025;-80
2023/01/23 07:02:57;;;;;;;16.67;10.77;;;1.40;79.90;;;;;;4876913;29;20483;-82
2023/01/23 07:05:23;;;;;;;19.63;9.10;;;1.50;79.90;;;;;;4881361;29;20461;-83
2023/01/23 07:07:50;;;;;;;19.17;9.32;;;1.40;79.80;;;;;;4881297;29;20037;-83
2023/01/23 07:10:16;;;;;;;16.65;8.75;;;1.30;80.00;;;;;;4887514;29;20464;-83
2023/01/23 07:12:42;;;;;;;15.75;10.43;;;1.20;80.00;;;;;;4884249;29;20037;-83
2023/01/23 07:15:08;;;;;;;14.68;8.77;;;1.20;80.30;;;;;;4885709;29;20548;-83
2023/01/23 07:17:34;;;;;;;14.77;10.32;;;1.20;80.20;;;;;;4878650;29;20037;-82
2023/01/23 07:19:59;;;;;;;19.35;10.82;;;1.20;80.30;;;;;;4890974;29;20044;-83
2023/01/23 07:22:25;;;;;;;9.70;8.52;;;1.10;80.40;;;;;;4884255;29;20061;-83
2023/01/23 07:24:51;;;;;;;17.98;11.07;;;1.10;80.40;;;;;;4883673;29;20029;-83
2023/01/23 07:27:16;;;;;;;15.30;9.63;;;1.00;80.60;;;;;;4880940;29;20041;-83
2023/01/23 07:29:42;;;;;;;10.50;8.82;;;1.00;80.60;;;;;;4883966;29;20538;-83
2023/01/23 07:32:07;;;;;;;10.32;8.43;;;1.00;80.60;;;;;;4887152;29;20137;-82
2023/01/23 07:34:33;;;;;;;10.20;8.90;;;1.00;80.70;;;;;;4882546;29;20037;-83
2023/01/23 07:36:59;;;;;;;19.05;10.15;;;1.10;80.70;;;;;;4885957;29;20052;-84
2023/01/23 07:39:25;;;;;;;16.00;10.88;;;1.10;80.60;;;;;;4874185;29;20096;-84
2023/01/23 07:41:50;;;;;;;17.67;11.77;;;1.10;80.50;;;;;;4901772;29;20476;-84
2023/01/23 07:44:18;;;;;;;14.70;11.63;;;1.10;80.40;;;;;;4891007;29;20037;-84
2023/01/23 07:46:45;;;;;;;17.88;10.23;;;1.20;80.30;;;;;;4886632;29;20033;-84
2023/01/23 07:49:12;;;;;;;20.17;11.27;;;1.20;80.30;;;;;;4867890;29;20063;-84
2023/01/23 07:51:37;;;;;;;12.23;10.15;;;1.20;80.20;;;;;;4884181;29;20512;-84
2023/01/23 07:54:03;;;;;;;16.45;11.23;;;1.20;80.10;;;;;;4888149;29;20047;-84
2023/01/23 07:56:29;;;;;;;13.48;10.48;;;1.20;80.00;;;;;;4901234;29;20079;-85
2023/01/23 07:58:55;;;;;;;16.83;9.63;;;1.20;80.00;;;;;;4900914;29;20483;-84
2023/01/23 08:01:20;;;;;;;17.40;8.77;;;1.10;80.10;;;;;;4884415;29;20033;-84
2023/01/23 08:03:46;;;;;;;12.60;9.07;;;1.00;80.10;;;;;;4900996;29;20028;-85
2023/01/23 08:06:12;;;;;;;12.40;8.48;;;1.00;80.10;;;;;;4885922;29;20032;-84
2023/01/23 08:08:39;;;;;;;14.05;8.82;;;1.00;80.30;;;;;;4894266;29;20029;-84
2023/01/23 08:11:10;;;;;;;14.05;8.30;;;1.00;80.40;;;;;;4896111;29;20396;-84
2023/01/23 08:13:36;;;;;;;14.43;8.63;;;1.00;80.40;;;;;;4895842;29;20395;-84
2023/01/23 08:16:03;;;;;;;13.40;9.05;;;1.00;80.50;;;;;;4901874;29;20038;-84
2023/01/23 08:18:30;;;;;;;13.40;8.75;;;1.10;80.40;;;;;;4902234;29;20510;-84
2023/01/23 08:20:57;;;;;;;10.63;8.57;;;1.10;80.40;;;;;;4885816;29;20442;-84
2023/01/23 08:23:28;;;;;;;14.25;8.40;;;1.20;80.30;;;;;;4869979;29;20127;-85
2023/01/23 08:25:55;;;;;;;16.55;10.07;;;1.30;80.10;;;;;;4902322;29;20036;-84
2023/01/23 08:28:21;;;;;;;10.70;8.15;;;1.40;79.90;;;;;;4902644;29;20382;-84
2023/01/23 08:30:48;;;;;;;17.60;11.25;;;1.40;79.80;;;;;;4896581;29;20076;-84
2023/01/23 08:33:14;;;;;;;14.73;9.70;;;1.50;79.70;;;;;;4884646;29;20025;-84
2023/01/23 08:35:48;;;;;;;14.82;9.07;;;1.60;79.60;;;;;;4882806;29;20029;-84
2023/01/23 08:38:13;;;;;;;17.25;8.93;;;1.60;79.50;;;;;;4884204;29;20025;-84
2023/01/23 08:40:39;;;;;;;14.80;9.10;;;1.60;79.60;;;;;;4885736;29;20092;-84
2023/01/23 08:43:04;;;;;;;16.10;9.30;;;1.60;79.70;;;;;;4896024;29;20061;-84
2023/01/23 08:45:30;;;;;;;15.98;9.50;;;1.60;79.80;;;;;;4901327;29;20037;-84
2023/01/23 08:47:56;;;;;;;12.63;8.15;;;1.70;79.80;;;;;;4902053;29;20029;-83
2023/01/23 08:50:22;;;;;;;15.50;10.07;;;1.70;79.70;;;;;;4881957;29;20033;-85
2023/01/23 08:52:48;;;;;;;18.00;9.60;;;1.80;79.60;;;;;;4883123;29;20400;-84
2023/01/23 08:55:13;;;;;;;19.42;9.75;;;1.80;79.60;;;;;;4885189;29;20436;-84
2023/01/23 08:57:39;;;;;;;15.35;8.52;;;1.80;79.40;;;;;;4883314;29;20496;-84
2023/01/23 09:00:05;;;;;;;14.52;7.22;;;1.90;79.40;;;;;;4897436;29;20101;-82
2023/01/23 09:02:31;;;;;;;24.35;9.93;;;2.00;79.40;;;;;;4884822;29;20035;-82
2023/01/23 09:04:57;;;;;;;18.77;11.80;;;2.00;79.10;;;;;;4893974;29;20032;-83
2023/01/23 09:07:22;;;;;;;18.95;10.32;;;2.00;79.10;;;;;;4883251;29;20063;-84
2023/01/23 09:09:48;;;;;;;17.67;9.15;;;2.00;79.30;;;;;;4882531;29;20040;-85
2023/01/23 09:12:14;;;;;;;17.63;12.15;;;2.20;79.40;;;;;;4883887;29;20033;-85
2023/01/23 09:14:39;;;;;;;22.08;10.10;;;2.20;79.30;;;;;;4892653;29;20028;-85
2023/01/23 09:17:05;;;;;;;17.92;8.52;;;2.20;79.40;;;;;;4901667;29;20024;-85
2023/01/23 09:19:31;;;;;;;15.93;10.93;;;2.20;79.50;;;;;;4884166;29;20037;-85
2023/01/23 09:21:57;;;;;;;23.10;11.70;;;2.30;79.30;;;;;;4899772;29;20052;-85
2023/01/23 09:24:22;;;;;;;14.13;8.85;;;2.40;79.30;;;;;;4889674;29;20105;-85
2023/01/23 09:26:48;;;;;;;14.00;9.23;;;2.50;79.30;;;;;;4901155;29;20036;-85
2023/01/23 09:29:14;;;;;;;19.52;9.95;;;2.80;78.90;;;;;;4901113;29;20527;-84
2023/01/23 09:31:40;;;;;;;17.23;9.70;;;3.10;78.30;;;;;;4886133;29;20128;-84
2023/01/23 09:34:06;;;;;;;16.23;9.73;;;3.20;77.60;;;;;;4901072;29;20063;-84
2023/01/23 09:36:33;;;;;;;19.90;10.68;;;3.40;77.50;;;;;;4898898;29;20028;-84
2023/01/23 09:38:59;;;;;;;12.32;9.90;;;3.60;77.10;;;;;;4886155;29;20041;-84
2023/01/23 09:41:27;;;;;;;15.20;11.93;;;3.90;76.50;;;;;;4891277;29;20839;-84
2023/01/23 09:44:06;;;;;;;15.23;11.07;;;4.40;75.40;;;;;;4883251;29;20040;-85
2023/01/23 09:46:48;;;;;;;14.65;10.60;;;4.90;74.70;;;;;;4874252;29;20697;-85
2023/01/23 09:49:40;;;;;;;12.50;11.13;;;5.50;72.90;;;;;;4887383;29;20488;-85
2023/01/23 09:52:19;;;;;;;14.20;10.95;;;6.00;71.80;;;;;;4884490;29;20038;-86
2023/01/23 09:54:47;;;;;;;13.88;10.77;;;6.30;70.90;;;;;;4901119;29;20063;-85
2023/01/23 09:57:29;;;;;;;13.82;8.85;;;6.30;69.90;;;;;;4891825;29;20067;-84
2023/01/23 10:00:05;;;;;;;11.90;8.95;;;6.20;69.30;;;;;;4889989;29;20040;-85
2023/01/23 10:02:31;;;;;;;16.73;7.82;;;6.00;69.60;;;;;;4892961;29;20021;-85
2023/01/23 10:04:58;;;;;;;12.30;8.43;;;5.70;69.70;;;;;;4891620;29;20404;-85
2023/01/23 10:07:38;;;;;;;12.95;8.18;;;5.60;70.30;;;;;;4890274;29;20029;-85
2023/01/23 10:10:46;;;;;;;13.95;9.30;;;5.50;71.00;;;;;;4884377;29;20060;-84
2023/01/23 10:13:18;;;;;;;15.35;9.07;;;5.00;71.40;;;;;;4887914;29;20043;-85
2023/01/23 10:16:18;;;;;;;16.98;9.73;;;4.70;72.30;;;;;;4879110;29;20170;-84
2023/01/23 10:18:57;;;;;;;18.08;9.38;;;4.40;73.10;;;;;;4881659;29;20119;-85
2023/01/23 10:21:47;;;;;;;14.13;8.48;;;4.30;73.70;;;;;;4880775;29;20036;-85
2023/01/23 10:24:31;;;;;;;14.25;10.25;;;4.20;74.20;;;;;;4893690;29;20047;-85
2023/01/23 10:27:10;;;;;;;14.05;9.30;;;4.20;74.30;;;;;;4880692;29;20518;-85
2023/01/23 10:29:41;;;;;;;18.42;9.68;;;4.20;74.20;;;;;;4879214;29;20053;-84
2023/01/23 10:32:25;;;;;;;14.38;9.75;;;4.20;74.30;;;;;;4883785;29;20044;-84
2023/01/23 10:34:56;;;;;;;15.32;8.30;;;4.20;74.20;;;;;;4900105;29;20032;-85
2023/01/23 10:37:30;;;;;;;18.50;10.23;;;4.10;74.50;;;;;;4900292;29;20017;-85
2023/01/23 10:40:01;;;;;;;19.35;9.80;;;4.10;74.60;;;;;;4874782;29;20033;-84
2023/01/23 10:42:27;;;;;;;18.33;11.57;;;4.20;74.70;;;;;;4890601;29;20044;-85
2023/01/23 10:44:53;;;;;;;14.07;8.55;;;4.20;74.80;;;;;;4881840;29;20047;-85
2023/01/23 10:47:40;;;;;;;16.33;9.43;;;4.20;74.70;;;;;;4880984;29;20028;-85
2023/01/23 10:50:06;;;;;;;20.25;10.10;;;4.20;74.70;;;;;;4881502;29;20066;-85
2023/01/23 10:52:36;;;;;;;19.75;9.82;;;4.20;75.00;;;;;;4881193;29;20025;-85
2023/01/23 10:55:26;;;;;;;13.07;9.82;;;4.20;74.60;;;;;;4899956;29;20047;-85
2023/01/23 10:57:57;;;;;;;23.92;11.07;;;4.20;74.90;;;;;;4899749;29;20032;-84
2023/01/23 11:00:25;;;;;;;15.05;8.02;;;4.30;74.80;;;;;;4897430;29;20104;-85
2023/01/23 11:02:51;;;;;;;14.85;8.93;;;4.30;74.50;;;;;;4897344;29;20032;-84
2023/01/23 11:05:39;;;;;;;17.80;9.75;;;4.30;74.70;;;;;;4883547;29;20088;-85
2023/01/23 11:08:25;;;;;;;11.93;7.28;;;4.30;74.90;;;;;;4889442;29;20120;-84
2023/01/23 11:10:51;;;;;;;15.35;9.35;;;4.40;74.70;;;;;;4892157;29;20080;-84
2023/01/23 11:13:28;;;;;;;15.70;10.43;;;4.40;74.90;;;;;;4899767;29;20025;-84
2023/01/23 11:15:54;;;;;;;10.98;7.05;;;4.40;74.70;;;;;;4885315;29;20073;-84
2023/01/23 11:18:32;;;;;;;13.68;7.22;;;4.40;74.40;;;;;;4893136;29;20059;-85
2023/01/23 11:20:58;;;;;;;20.85;11.07;;;4.40;74.70;;;;;;4883164;29;20025;-85
2023/01/23 11:23:24;;;;;;;14.68;8.52;;;4.50;74.60;;;;;;4884852;29;20029;-85
2023/01/23 11:25:51;;;;;;;17.60;8.75;;;4.60;74.50;;;;;;4885426;29;20061;-82
2023/01/23 11:28:46;;;;;;;16.67;9.35;;;4.60;74.40;;;;;;4886439;29;20028;-83
2023/01/23 11:31:25;;;;;;;19.17;10.15;;;4.60;74.50;;;;;;4862510;29;20504;-83
2023/01/23 11:33:57;;;;;;;13.48;7.63;;;4.60;74.40;;;;;;4902723;29;20031;-83
2023/01/23 11:36:41;;;;;;;14.27;7.95;;;4.70;74.30;;;;;;4888014;29;20030;-84
2023/01/23 11:39:33;;;;;;;12.40;7.63;;;4.70;74.20;;;;;;4903785;29;20025;-84
2023/01/23 11:41:58;;;;;;;14.95;8.20;;;4.80;74.30;;;;;;4867741;29;20044;-84
2023/01/23 11:44:24;;;;;;;14.52;8.15;;;4.80;74.00;;;;;;4883262;29;20105;-84
2023/01/23 11:47:20;;;;;;;16.33;8.65;;;4.90;73.70;;;;;;4868275;29;20037;-84
2023/01/23 11:49:51;;;;;;;12.85;8.02;;;4.90;73.80;;;;;;4884678;29;20025;-84
2023/01/23 11:52:38;;;;;;;15.52;8.85;;;5.00;73.60;;;;;;4884845;29;20120;-84
2023/01/23 11:55:13;;;;;;;14.88;7.25;;;5.00;73.60;;;;;;4896761;29;20391;-83
2023/01/23 11:58:03;;;;;;;13.82;8.25;;;5.00;73.30;;;;;;4903412;29;20062;-83
2023/01/23 12:00:43;;;;;;;;;;;5.10;73.30;;;;;;4885143;29;20029;-83
2023/01/23 12:03:30;;;;;;;14.38;8.55;;;5.10;73.40;;;;;;4896693;29;20009;-83
2023/01/23 12:06:13;;;;;;;14.55;7.63;;;5.10;73.40;;;;;;4899546;29;20488;-83
2023/01/23 12:09:07;;;;;;;10.95;7.32;;;5.20;73.20;;;;;;4884602;29;20049;-83
2023/01/23 12:12:19;;;;;;;14.75;8.07;;;5.20;72.80;;;;;;4895809;29;20040;-83
2023/01/23 12:14:47;;;;;;;13.65;8.07;;;5.20;72.90;;;;;;4872789;29;20052;-83
2023/01/23 12:17:34;;;;;;;12.95;7.90;;;5.30;73.00;;;;;;4903164;29;20029;-83
2023/01/23 12:20:35;;;;;;;13.40;8.88;;;5.30;73.10;;;;;;4891854;29;20062;-83
2023/01/23 12:23:24;;;;;;;;;;;5.30;72.70;;;;;;4880306;29;20089;-83
2023/01/23 12:26:12;;;;;;;14.00;8.67;;;5.40;72.50;;;;;;4883102;29;20399;-82
2023/01/23 12:29:00;;;;;;;15.77;7.50;;;5.40;72.30;;;;;;4882056;29;20060;-85
2023/01/23 12:31:59;;;;;;;11.07;6.93;;;5.30;72.30;;;;;;4899821;29;20048;-84
2023/01/23 12:34:54;;;;;;;12.27;5.82;;;5.30;72.50;;;;;;4894543;29;20048;-81
2023/01/23 12:37:30;;;;;;;14.25;8.43;;;5.30;72.20;;;;;;4903040;29;20108;-81
2023/01/23 12:40:16;;;;;;;13.32;8.00;;;5.40;72.50;;;;;;4886621;29;20037;-81
2023/01/23 12:43:14;;;;;;;15.30;8.60;;;5.40;72.30;;;;;;4888330;29;20112;-80
2023/01/23 12:45:51;;;;;;;16.60;7.93;;;5.50;72.00;;;;;;4899995;29;20028;-89
2023/01/23 12:48:33;;;;;;;13.02;8.07;;;5.40;72.20;;;;;;4882868;29;20740;-84
2023/01/23 12:51:12;;;;;;;11.57;7.43;;;5.50;71.90;;;;;;4883243;29;20492;-82
2023/01/23 12:53:39;;;;;;;12.35;7.63;;;5.50;71.80;;;;;;4884116;29;20037;-83
2023/01/23 12:56:22;;;;;;;14.80;7.90;;;5.50;71.60;;;;;;4902437;29;20032;-82
2023/01/23 12:59:12;;;;;;;13.23;7.68;;;5.50;71.80;;;;;;4902118;29;20427;-84
2023/01/23 13:02:02;;;;;;;13.68;7.43;;;5.60;71.70;;;;;;4883536;29;20045;-82
2023/01/23 13:05:14;;;;;;;15.87;9.70;;;5.70;71.60;;;;;;4886525;29;20112;-82
2023/01/23 13:08:13;;;;;;;16.63;8.95;;;5.80;71.70;;;;;;4857498;29;20104;-82
2023/01/23 13:13:33;;;;;;;12.65;8.30;;;5.70;70.90;;;;;;4885343;29;20413;-83
2023/01/23 13:16:11;;;;;;;13.45;8.15;;;5.70;71.00;;;;;;4882891;29;20032;-82
2023/01/23 13:25:15;;;;;;;13.20;7.45;;;5.70;70.70;;;;;;4883129;29;20051;-83
2023/01/23 13:27:43;;;;;;;;;;;5.60;70.40;;;;;;4853097;29;20060;-82
2023/01/23 13:30:39;;;;;;;9.05;5.63;;;5.60;69.90;;;;;;4882953;29;19915;-82
2023/01/23 13:33:05;;;;;;;14.15;7.03;;;5.70;70.20;;;;;;4894430;29;20044;-82
2023/01/23 13:35:42;;;;;;;13.10;6.85;;;5.70;69.70;;;;;;4890805;29;20058;-82
2023/01/23 13:38:28;;;;;;;10.13;5.72;;;5.60;69.90;;;;;;4883004;29;20035;-82
2023/01/23 13:41:17;;;;;;;9.63;6.13;;;5.70;70.40;;;;;;4882655;29;20029;-82
2023/01/23 13:43:48;;;;;;;14.23;7.57;;;5.70;70.10;;;;;;4899959;29;20060;-82
2023/01/23 13:46:29;;;;;;;14.13;7.82;;;5.70;69.80;;;;;;4901126;29;20107;-82
2023/01/23 13:51:59;;;;;;;10.73;6.75;;;5.70;69.90;;;;;;4901153;29;20071;-83
2023/01/23 13:57:16;;;;;;;11.23;5.82;;;5.80;70.40;;;;;;4901446;29;20060;-82
2023/01/23 13:59:49;;;;;;;15.85;8.95;;;5.80;69.80;;;;;;4900063;29;20020;-83
2023/01/23 14:05:30;;;;;;;12.52;7.97;;;5.90;69.70;;;;;;4900685;29;20063;-83
2023/01/23 14:08:04;;;;;;;14.25;8.05;;;5.80;69.70;;;;;;4894902;29;20603;-83
2023/01/23 14:10:32;;;;;;;13.90;7.18;;;5.70;70.00;;;;;;4885110;29;20395;-83
2023/01/23 14:13:14;;;;;;;12.13;8.63;;;5.70;70.30;;;;;;4883785;29;20032;-82
2023/01/23 14:18:37;;;;;;;13.05;7.20;;;5.80;70.30;;;;;;4882734;29;20093;-83
2023/01/23 14:21:16;;;;;;;14.05;7.05;;;5.70;70.40;;;;;;4880805;29;20048;-83
2023/01/23 14:23:42;;;;;;;12.55;6.75;;;5.60;70.10;;;;;;4881649;29;20530;-83
2023/01/23 14:26:16;;;;;;;13.45;7.75;;;5.70;70.40;;;;;;4865496;29;20068;-83
2023/01/23 14:29:01;;;;;;;14.55;7.30;;;5.70;70.40;;;;;;4884046;29;20040;-83
2023/01/23 14:31:32;;;;;;;12.32;6.47;;;5.80;70.50;;;;;;4898095;29;20057;-83
2023/01/23 14:34:06;;;;;;;10.88;6.30;;;5.70;70.40;;;;;;4900715;29;20032;-82
2023/01/23 14:36:34;;;;;;;17.88;8.88;;;5.70;70.60;;;;;;4879500;29;20033;-82
2023/01/23 14:39:01;;;;;;;14.80;8.35;;;5.70;70.30;;;;;;4880689;29;20029;-83
2023/01/23 14:41:31;;;;;;;16.08;8.27;;;5.80;71.00;;;;;;4881720;29;20037;-82
2023/01/23 14:43:58;;;;;;;16.90;7.78;;;5.90;70.70;;;;;;4880321;29;20100;-83
2023/01/23 14:46:37;;;;;;;14.60;8.18;;;5.90;70.50;;;;;;4880999;29;20048;-83
2023/01/23 14:49:06;;;;;;;13.60;8.30;;;5.80;70.40;;;;;;4894982;29;20084;-84
2023/01/23 14:51:32;;;;;;;16.50;8.70;;;5.80;70.40;;;;;;4892223;29;20060;-83
2023/01/23 14:54:01;;;;;;;16.45;8.52;;;5.70;70.70;;;;;;4885719;29;20033;-83
2023/01/23 14:56:33;;;;;;;13.85;7.45;;;5.70;70.80;;;;;;4900282;29;20397;-83
2023/01/23 14:59:05;;;;;;;13.57;7.95;;;5.50;71.00;;;;;;4890254;29;20044;-83
2023/01/23 15:01:31;;;;;;;14.95;8.63;;;5.40;71.70;;;;;;4881618;29;20032;-83
2023/01/23 15:04:04;;;;;;;14.32;8.93;;;5.50;71.70;;;;;;4899639;29;20048;-83
2023/01/23 15:06:33;;;;;;;12.93;7.55;;;5.70;71.60;;;;;;4882852;29;20492;-83
2023/01/23 15:09:16;;;;;;;19.48;8.73;;;5.70;71.60;;;;;;4881893;29;20070;-83
2023/01/23 15:11:43;;;;;;;16.30;9.05;;;5.70;71.20;;;;;;4893688;29;20059;-83
2023/01/23 15:14:29;;;;;;;17.98;8.15;;;5.70;70.90;;;;;;4886735;29;20061;-83
2023/01/23 15:17:17;;;;;;;20.42;9.35;;;5.60;71.10;;;;;;4884056;29;20017;-83
2023/01/23 15:19:49;;;;;;;14.30;7.82;;;5.50;71.30;;;;;;4895214;29;20074;-80
2023/01/23 15:22:24;;;;;;;14.57;8.43;;;5.30;71.40;;;;;;4899945;29;20056;-86
2023/01/23 15:24:49;;;;;;;17.17;8.98;;;5.20;71.70;;;;;;4883337;29;20399;-83
2023/01/23 15:27:36;;;;;;;15.52;7.93;;;5.30;71.80;;;;;;4898380;29;20028;-83
2023/01/23 15:30:32;;;;;;;14.52;7.35;;;5.20;72.00;;;;;;4881196;29;20052;-82
2023/01/23 15:33:05;;;;;;;16.83;7.90;;;5.30;71.80;;;;;;4891490;29;20044;-82
2023/01/23 15:35:33;;;;;;;16.45;7.88;;;5.30;71.80;;;;;;4893163;29;20021;-82
2023/01/23 15:38:03;;;;;;;14.93;8.20;;;5.30;71.90;;;;;;4873390;29;20037;-82
2023/01/23 15:40:31;;;;;;;14.77;7.60;;;5.30;71.70;;;;;;4883184;29;20029;-82
2023/01/23 15:43:04;;;;;;;18.95;9.07;;;5.30;71.80;;;;;;4899891;29;20563;-82
2023/01/23 15:45:30;;;;;;;17.52;8.35;;;5.30;71.80;;;;;;4899655;29;20064;-83
2023/01/23 15:47:56;;;;;;;17.02;8.65;;;5.30;71.70;;;;;;4883875;29;20045;-83
2023/01/23 15:50:22;;;;;;;13.35;8.52;;;5.30;71.60;;;;;;4880997;29;20036;-83
2023/01/23 15:52:51;;;;;;;18.30;8.82;;;5.30;71.70;;;;;;4880887;29;20374;-83
2023/01/23 15:55:18;;;;;;;15.45;8.73;;;5.30;71.80;;;;;;4878973;29;20369;-83
2023/01/23 15:57:44;;;;;;;15.93;8.43;;;5.30;71.80;;;;;;4881672;29;20039;-83
2023/01/23 16:00:18;;;;;;;13.82;7.93;;;5.20;71.80;;;;;;4883143;29;20064;-82
2023/01/23 16:02:43;;;;;;;12.82;7.85;;;5.20;71.80;;;;;;4878412;29;20040;-83
2023/01/23 16:05:09;;;;;;;13.88;7.93;;;5.20;71.90;;;;;;4886537;29;20500;-83
2023/01/23 16:07:40;;;;;;;12.20;7.53;;;5.20;72.00;;;;;;4886481;29;20511;-82
2023/01/23 16:10:23;;;;;;;15.15;8.77;;;5.10;72.10;;;;;;4900017;29;20127;-82
2023/01/23 16:12:52;;;;;;;13.38;7.55;;;5.10;72.10;;;;;;4884266;29;20484;-82
2023/01/23 16:15:21;;;;;;;12.40;7.28;;;5.10;72.20;;;;;;4884056;29;20060;-82
2023/01/23 16:17:47;;;;;;;13.52;6.80;;;5.00;72.30;;;;;;4867846;29;20067;-82
2023/01/23 16:20:21;;;;;;;12.60;7.20;;;4.90;72.60;;;;;;4884359;29;20025;-82
2023/01/23 16:22:56;;;;;;;18.92;9.60;;;4.90;73.00;;;;;;4873339;29;20052;-82
2023/01/23 16:25:30;;;;;;;15.75;8.20;;;4.80;73.00;;;;;;4883545;29;20033;-82
2023/01/23 16:27:56;;;;;;;13.05;7.55;;;4.70;73.00;;;;;;4883983;29;20408;-82
2023/01/23 16:30:24;;;;;;;22.52;8.32;;;4.70;73.20;;;;;;4881423;29;20066;-82
2023/01/23 16:32:50;;;;;;;18.35;8.23;;;4.70;73.30;;;;;;4885420;29;20040;-82
2023/01/23 16:35:16;;;;;;;11.50;7.78;;;4.70;73.40;;;;;;4884701;29;20400;-81
2023/01/23 16:37:44;;;;;;;19.55;9.57;;;4.60;73.60;;;;;;4883798;29;20025;-81
2023/01/23 16:40:14;;;;;;;19.90;10.40;;;4.60;73.70;;;;;;4876088;29;20025;-82
2023/01/23 16:42:42;;;;;;;17.00;9.95;;;4.60;73.60;;;;;;4883812;29;20524;-81
2023/01/23 16:45:29;;;;;;;12.35;8.40;;;4.50;73.70;;;;;;4889430;29;20044;-82
2023/01/23 16:47:55;;;;;;;13.52;7.68;;;4.50;73.90;;;;;;4881782;29;20033;-82
2023/01/23 16:50:34;;;;;;;12.48;7.45;;;4.50;73.90;;;;;;4882438;29;20029;-82
2023/01/23 16:53:22;;;;;;;17.05;8.93;;;4.40;74.00;;;;;;4883387;29;20454;-82
2023/01/23 16:55:50;;;;;;;13.98;9.07;;;4.40;74.00;;;;;;4883084;29;20056;-81
2023/01/23 16:58:19;;;;;;;15.68;8.02;;;4.40;74.10;;;;;;4867051;29;20037;-82
2023/01/23 17:00:45;;;;;;;12.40;8.07;;;4.30;74.20;;;;;;4883600;29;20029;-81
2023/01/23 17:03:23;;;;;;;11.85;8.68;;;4.30;74.30;;;;;;4887827;29;20037;-82
2023/01/23 17:05:49;;;;;;;16.73;10.20;;;4.30;74.20;;;;;;4899443;29;20491;-82
2023/01/23 17:08:20;;;;;;;19.35;9.73;;;4.30;74.30;;;;;;4883268;29;20143;-82
2023/01/23 17:10:49;;;;;;;17.60;10.77;;;4.30;74.50;;;;;;4888758;29;20495;-83
2023/01/23 17:13:17;;;;;;;19.30;9.65;;;4.30;74.50;;;;;;4898950;29;20058;-82
2023/01/23 17:18:47;;;;;;;13.68;8.45;;;4.30;74.40;;;;;;4901372;29;20060;-86
2023/01/23 17:24:03;;;;;;;17.85;7.78;;;4.30;74.40;;;;;;4889873;29;20037;-80
2023/01/23 17:26:29;;;;;;;16.42;9.85;;;4.40;74.40;;;;;;4898245;29;20033;-81
2023/01/23 17:28:55;;;;;;;12.38;7.72;;;4.30;74.30;;;;;;4884069;29;20069;-85
2023/01/23 17:31:26;;;;;;;22.70;10.32;;;4.40;74.30;;;;;;4883633;29;20048;-79
2023/01/23 17:33:52;;;;;;;15.55;8.60;;;4.30;74.60;;;;;;4893939;29;20056;-79
2023/01/23 17:36:18;;;;;;;13.07;7.65;;;4.30;74.80;;;;;;4884320;29;20025;-79
2023/01/23 17:38:46;;;;;;;25.15;10.98;;;4.40;74.90;;;;;;4901903;29;20029;-79
2023/01/23 17:41:14;;;;;;;18.38;9.93;;;4.40;74.80;;;;;;4896039;29;20035;-82
2023/01/23 17:43:42;;;;;;;16.17;8.48;;;4.40;74.70;;;;;;4865961;29;20039;-81
2023/01/23 17:46:08;;;;;;;15.27;7.72;;;4.40;74.70;;;;;;4899429;29;20456;-85
2023/01/23 17:48:38;;;;;;;19.65;9.27;;;4.40;74.60;;;;;;4880499;29;20025;-85
2023/01/23 17:51:06;;;;;;;17.83;9.65;;;4.50;74.70;;;;;;4900320;29;20039;-81
2023/01/23 17:53:31;;;;;;;15.93;8.75;;;4.50;74.60;;;;;;4899123;29;20032;-80
2023/01/23 17:55:57;;;;;;;20.38;12.18;;;4.50;74.70;;;;;;4883325;29;20193;-80
2023/01/23 17:58:23;;;;;;;17.67;10.10;;;4.50;74.50;;;;;;4878026;29;20484;-79
2023/01/23 18:00:51;;;;;;;15.65;9.52;;;4.50;74.60;;;;;;4897856;29;20020;-79
2023/01/23 18:03:20;;;;;;;21.38;10.77;;;4.40;74.70;;;;;;4894204;29;20029;-80
2023/01/23 18:05:46;;;;;;;21.10;10.40;;;4.40;74.80;;;;;;4871930;29;20481;-79
2023/01/23 18:08:21;;;;;;;18.75;9.65;;;4.40;74.80;;;;;;4873586;29;20074;-79
2023/01/23 18:10:50;;;;;;;16.98;9.38;;;4.50;74.80;;;;;;4886518;29;20036;-79
2023/01/23 18:13:39;;;;;;;19.50;10.00;;;4.40;74.70;;;;;;4888191;29;20037;-81
2023/01/23 18:16:24;;;;;;;19.85;10.50;;;4.30;74.80;;;;;;4887413;29;20037;-81
2023/01/23 18:18:57;;;;;;;19.85;10.82;;;4.40;75.00;;;;;;4887084;29;20725;-77
2023/01/23 18:21:24;;;;;;;26.15;12.48;;;4.40;74.90;;;;;;4882100;29;20396;-77
2023/01/23 18:23:50;;;;;;;21.55;9.95;;;4.40;75.00;;;;;;4881180;29;20836;-79
2023/01/23 18:26:31;;;;;;;19.85;8.52;;;4.40;75.00;;;;;;4882429;29;20112;-78
2023/01/23 18:29:09;;;;;;;18.63;9.13;;;4.40;75.10;;;;;;4870310;29;20036;-83
2023/01/23 18:32:01;;;;;;;15.75;8.45;;;4.50;75.10;;;;;;4882444;29;20065;-79
2023/01/23 18:34:43;;;;;;;18.80;12.00;;;4.50;74.90;;;;;;4874585;29;20044;-83
2023/01/23 18:37:39;;;;;;;15.23;8.73;;;4.50;74.80;;;;;;4899330;29;20036;-84
2023/01/23 18:40:19;;;;;;;16.73;9.82;;;4.50;74.80;;;;;;4900512;29;20167;-88
2023/01/23 18:42:45;;;;;;;;;;;4.50;74.80;;;;;;4886241;29;20066;-80
2023/01/23 18:45:14;;;;;;;14.30;8.05;;;4.40;75.00;;;;;;4877364;29;19916;-82
2023/01/23 18:47:39;;;;;;;17.98;9.55;;;4.40;75.00;;;;;;4896747;29;20029;-83
2023/01/23 18:50:07;;;;;;;17.60;9.52;;;4.40;75.30;;;;;;4900560;29;20438;-84
2023/01/23 18:52:45;;;;;;;16.38;10.07;;;4.40;75.20;;;;;;4882100;29;20029;-83
2023/01/23 18:55:22;;;;;;;19.65;10.57;;;4.50;75.10;;;;;;4878798;29;20032;-80
2023/01/23 18:58:22;;;;;;;;;;;;;;;;;;;;;
2023/01/23 19:01:04;;;;;;;18.63;10.13;;;4.50;75.20;;;;;;4883851;29;20024;-83
2023/01/23 19:03:39;;;;;;;19.35;10.30;;;4.50;75.10;;;;;;4889218;29;20021;-82
2023/01/23 19:06:11;;;;;;;19.55;11.10;;;4.50;75.10;;;;;;4887421;29;20120;-83
2023/01/23 19:08:38;;;;;;;24.75;10.55;;;4.50;75.00;;;;;;4887545;29;20028;-81
2023/01/23 19:11:09;;;;;;;20.05;10.25;;;4.50;75.20;;;;;;4885008;29;20044;-81
2023/01/23 19:13:57;;;;;;;25.98;10.88;;;4.50;75.30;;;;;;4890686;29;20076;-79